M I D A S
Marine Information and Data Acquisition System
Tripno 448 of the Zeeleeuw from 2003-03-19 07:25:30 to 2003-03-19 14:17:29
Back to CruiseResearch ActivitiesStationsMapUnderway DataData graphs

EquipmentUnitsComments
TimeDGPSUTC
LatitudeDGPSDM.mWGS84
LongitudeDGPSDM.mWGS84
SpeedMeteo Stationm/sRelative wind speed
DirectionMeteo StationdegRelative wind direction
TemperatureMeteo Stationdeg CelciusAir temperature
PressureMeteo StationPaAtmospheric pressure
HumidityMeteo Station%Relative humidity
Missing or incorrect values are displayed as -999
Metereological data collected by the RV Zeeleeuw from 2003-03-19 07:25:30 to 2003-03-19 14:17:29
Time Latitude Longitude Speed Direction Temperature Pressure Humidity
2003-03-19 07:26 51°13.599 2°56.105 0.5 37 6.5 103150 83
2003-03-19 07:27 51°13.598 2°56.104 0.4 24 6.6 103150 83
2003-03-19 07:28 51°13.609 2°56.048 1.8 145 6.6 103150 82
2003-03-19 07:29 51°13.621 2°55.984 1 83 6.5 103150 81
2003-03-19 07:30 51°13.641 2°55.92 2.5 162 6.3 103150 81
2003-03-19 07:31 51°13.674 2°55.814 2.3 144 6.2 103150 80
2003-03-19 07:32 51°13.696 2°55.727 0.9 105 6 103150 81
2003-03-19 07:33 51°13.702 2°55.717 1.4 12 5.9 103150 81
2003-03-19 07:34 51°13.704 2°55.71 0.3 359 6 103150 82
2003-03-19 07:35 51°13.713 2°55.7 2.2 331 6.1 103150 82
2003-03-19 07:36 51°13.766 2°55.666 3.5 355 6 103150 81
2003-03-19 07:37 51°13.876 2°55.592 4.5 346 5.9 103150 82
2003-03-19 07:38 51°13.993 2°55.511 4.3 345 5.8 103150 82
2003-03-19 07:39 51°14.115 2°55.423 5.3 328 5.9 103150 83
2003-03-19 07:40 51°14.236 2°55.302 4.2 334 5.8 103150 83
2003-03-19 07:41 51°14.328 2°55.14 4.2 338 5.8 103140 84
2003-03-19 07:42 51°14.394 2°54.905 4.8 345 5.7 103150 84
2003-03-19 07:43 51°14.379 2°54.58 5.8 355 5.7 103150 85
2003-03-19 07:44 51°14.323 2°54.231 5.7 356 5.6 103150 85
2003-03-19 07:45 51°14.249 2°53.885 6 353 5.6 103150 86
2003-03-19 07:46 51°14.153 2°53.561 5.9 353 5.5 103140 86
2003-03-19 07:47 51°14.068 2°53.2 6.1 354 5.5 103140 86
2003-03-19 07:48 51°13.941 2°52.868 6.4 353 5.5 103140 86
2003-03-19 07:49 51°13.815 2°52.506 6.8 357 5.5 103150 86
2003-03-19 07:50 51°13.696 2°52.153 6.4 354 5.5 103140 87
2003-03-19 07:51 51°13.567 2°51.808 6.7 352 5.6 103150 87
2003-03-19 07:52 51°13.444 2°51.46 6.2 353 5.6 103150 87
2003-03-19 07:53 51°13.321 2°51.113 5.9 351 5.6 103140 87
2003-03-19 07:54 51°13.198 2°50.763 6 350 5.6 103140 87
2003-03-19 07:55 51°13.075 2°50.413 5.7 349 5.7 103140 87
2003-03-19 07:56 51°12.95 2°50.063 5.9 353 5.7 103140 87
2003-03-19 07:57 51°12.825 2°49.706 5.8 351 5.7 103140 88
2003-03-19 07:58 51°12.7 2°49.347 5.9 352 5.8 103140 87
2003-03-19 07:59 51°12.575 2°48.99 5.9 356 5.8 103140 87
2003-03-19 08:00 51°12.452 2°48.633 6 353 5.8 103130 87
2003-03-19 08:01 51°12.326 2°48.28 5.7 352 5.8 103140 88
2003-03-19 08:02 51°12.202 2°47.926 6 353 5.9 103140 87
2003-03-19 08:03 51°12.078 2°47.566 5.9 354 5.9 103140 87
2003-03-19 08:04 51°11.953 2°47.205 6.4 352 5.9 103140 87
2003-03-19 08:05 51°11.833 2°46.85 6.1 351 5.9 103140 87
2003-03-19 08:06 51°11.717 2°46.484 6 352 5.9 103140 87
2003-03-19 08:07 51°11.598 2°46.112 6.2 354 6 103140 87
2003-03-19 08:08 51°11.483 2°45.748 6.2 354 6 103140 87
2003-03-19 08:09 51°11.37 2°45.39 6.2 355 6 103140 87
2003-03-19 08:10 51°11.254 2°45.022 6.3 354 6 103140 87
2003-03-19 08:11 51°11.142 2°44.663 6.3 354 6 103140 87
2003-03-19 08:12 51°11.03 2°44.306 6.2 354 6 103140 87
2003-03-19 08:13 51°10.919 2°43.952 6 353 6 103140 87
2003-03-19 08:14 51°10.806 2°43.602 5.9 354 6 103140 87
2003-03-19 08:15 51°10.7 2°43.252 5.5 350 6 103140 87
2003-03-19 08:16 51°10.663 2°42.886 6 344 6 103140 87
2003-03-19 08:17 51°10.631 2°42.501 5.9 351 6 103130 87
2003-03-19 08:18 51°10.485 2°42.188 5.7 356 6.1 103140 87
2003-03-19 08:19 51°10.36 2°41.859 5.6 350 6.1 103140 87
2003-03-19 08:20 51°10.235 2°41.531 5.5 350 6.1 103140 87
2003-03-19 08:21 51°10.123 2°41.194 5 350 6.1 103140 87
2003-03-19 08:22 51°9.998 2°40.871 5.1 346 6.2 103140 87
2003-03-19 08:23 51°9.895 2°40.529 5.3 345 6.2 103140 87
2003-03-19 08:24 51°9.783 2°40.194 5.1 348 6.2 103140 87
2003-03-19 08:25 51°9.674 2°39.857 5 346 6.2 103140 87
2003-03-19 08:26 51°9.57 2°39.515 5.4 346 6.2 103140 87
2003-03-19 08:27 51°9.468 2°39.172 5.4 344 6.3 103140 87
2003-03-19 08:28 51°9.361 2°38.834 5.6 347 6.3 103140 87
2003-03-19 08:29 51°9.256 2°38.494 5.5 346 6.3 103140 87
2003-03-19 08:30 51°9.149 2°38.156 5.4 346 6.3 103140 87
2003-03-19 08:31 51°9.037 2°37.84 4.5 345 6.3 103140 87
2003-03-19 08:32 51°8.973 2°37.522 4.8 340 6.3 103140 87
2003-03-19 08:33 51°8.988 2°37.231 6.2 336 6.3 103140 87
2003-03-19 08:34 51°9.115 2°37.223 4.9 356 6.4 103130 87
2003-03-19 08:35 51°9.134 2°37.258 2.4 37 6.4 103140 87
2003-03-19 08:36 51°9.12 2°37.257 2.6 37 6.5 103140 87
2003-03-19 08:37 51°9.115 2°37.261 2.6 22 6.6 103140 87
2003-03-19 08:38 51°9.114 2°37.26 2.5 5 6.7 103140 87
2003-03-19 08:39 51°9.116 2°37.257 2.8 355 6.7 103140 86
2003-03-19 08:40 51°9.121 2°37.252 2.8 357 6.8 103140 86
2003-03-19 08:41 51°9.122 2°37.244 2.6 356 6.8 103140 86
2003-03-19 08:42 51°9.122 2°37.234 2.5   6.8 103130 86
2003-03-19 08:43 51°9.12 2°37.222 2.5 10 6.8 103130 86
2003-03-19 08:44 51°9.116 2°37.212 2.4 11 6.9 103130 86
2003-03-19 08:45 51°9.111 2°37.2 2.3 13 6.9 103140 85
2003-03-19 08:46 51°9.103 2°37.192 2.2 19 6.9 103140 85
2003-03-19 08:47 51°9.098 2°37.187 2.3 21 7 103140 85
2003-03-19 08:48 51°9.093 2°37.185 2.6 9 7 103130 85
2003-03-19 08:49 51°9.094 2°37.179 2.4 358 7 103130 85
2003-03-19 08:50 51°9.1 2°37.167 2.5 350 7 103130 84
2003-03-19 08:51 51°9.105 2°37.153 2.3 349 7 103140 84
2003-03-19 08:52 51°9.109 2°37.136 2.3 350 6.9 103130 84
2003-03-19 08:53 51°9.112 2°37.125 2.5 358 6.9 103130 84
2003-03-19 08:54 51°9.115 2°37.125 2.5 16 7 103130 84
2003-03-19 08:55 51°9.11 2°37.134 2.6 41 7 103130 84
2003-03-19 08:56 51°9.092 2°37.143 2.3 53 7 103130 84
2003-03-19 08:57 51°9.067 2°37.148 1.8 82 7.1 103130 84
2003-03-19 08:58 51°9.03 2°37.137 0.9 107 7.1 103140 83
2003-03-19 08:59 51°8.993 2°37.102 0.8 133 7.1 103130 83
2003-03-19 09:00 51°8.962 2°37.05 1.2 220 7.2 103140 84
2003-03-19 09:01 51°8.94 2°36.983 1.3 245 7.3 103130 83
2003-03-19 09:02 51°8.931 2°36.915 1.5 262 7.2 103130 83
2003-03-19 09:03 51°8.933 2°36.849 1.5 283 7.1 103130 82
2003-03-19 09:04 51°8.954 2°36.771 4.2 325 6.9 103130 82
2003-03-19 09:05 51°9.013 2°36.519 5.4 336 6.7 103130 83
2003-03-19 09:06 51°8.996 2°36.185 5.8 341 6.7 103130 84
2003-03-19 09:07 51°8.966 2°35.826 5.9 343 6.7 103130 84
2003-03-19 09:08 51°8.939 2°35.449 5.9 340 6.7 103130 84
2003-03-19 09:09 51°8.915 2°35.082 6.2 340 6.7 103120 84
2003-03-19 09:10 51°8.895 2°34.719 5.8 338 6.7 103120 85
2003-03-19 09:11 51°8.877 2°34.362 5.5 336 6.7 103120 85
2003-03-19 09:12 51°8.861 2°34.007 5.8 336 6.8 103120 84
2003-03-19 09:13 51°8.844 2°33.65 5.6 336 6.8 103120 84
2003-03-19 09:14 51°8.823 2°33.321 4.2 333 6.8 103120 84
2003-03-19 09:15 51°8.809 2°33.104 2.7 320 6.8 103130 84
2003-03-19 09:16 51°8.817 2°32.96 2.8 306 6.6 103130 84
2003-03-19 09:17 51°8.839 2°32.863 3.1 307 6.5 103130 84
2003-03-19 09:18 51°8.866 2°32.805 3 312 6.5 103120 84
2003-03-19 09:19 51°8.89 2°32.759 3.2 312 6.4 103120 85
2003-03-19 09:20 51°8.914 2°32.716 3.1 311 6.3 103120 85
2003-03-19 09:21 51°8.937 2°32.669 3 307 6.3 103120 85
2003-03-19 09:22 51°8.955 2°32.621 3 304 6.2 103120 85
2003-03-19 09:23 51°8.973 2°32.573 3 312 6.2 103120 85
2003-03-19 09:24 51°8.991 2°32.54 2.9 328 6.2 103120 86
2003-03-19 09:25 51°9.006 2°32.522 2.8 346 6.2 103110 86
2003-03-19 09:26 51°9.016 2°32.519 2.9 351 6.4 103120 86
2003-03-19 09:27 51°9.022 2°32.53 3 14 6.5 103120 86
2003-03-19 09:28 51°9.02 2°32.555 2.8 26 6.7 103120 86
2003-03-19 09:29 51°9 2°32.583 3.2 53 6.8 103120 86
2003-03-19 09:30 51°8.968 2°32.598 2.6 82 6.9 103120 86
2003-03-19 09:31 51°8.933 2°32.605 2.7 56 6.9 103120 85
2003-03-19 09:32 51°8.912 2°32.618 3 35 7 103120 85
2003-03-19 09:33 51°8.906 2°32.627 3.2 8 7.2 103120 85
2003-03-19 09:34 51°8.91 2°32.626 3 348 7.2 103120 84
2003-03-19 09:35 51°8.941 2°32.619 4.7 344 7.1 103120 83
2003-03-19 09:36 51°9.01 2°32.644 4.8 349 7.1 103110 83
2003-03-19 09:37 51°9.07 2°32.676 4.8 347 7 103110 83
2003-03-19 09:38 51°9.107 2°32.72 3.6 1 7 103110 83
2003-03-19 09:39 51°9.12 2°32.742 3.1 354 7 103110 83
2003-03-19 09:40 51°9.127 2°32.754 3.3 359 7.1 103110 83
2003-03-19 09:41 51°9.129 2°32.769 3.1 356 7.1 103110 83
2003-03-19 09:42 51°9.134 2°32.774 3.1 344 7.1 103110 83
2003-03-19 09:43 51°9.137 2°32.775 3.1 343 7.1 103110 82
2003-03-19 09:44 51°9.138 2°32.776 2.7 347 7.2 103110 82
2003-03-19 09:45 51°9.135 2°32.778 2.8 1 7.2 103110 82
2003-03-19 09:46 51°9.131 2°32.777 2.8 346 7.2 103110 82
2003-03-19 09:47 51°9.127 2°32.777 2.7 347 7.2 103110 82
2003-03-19 09:48 51°9.124 2°32.777 2.7 346 7.2 103110 82
2003-03-19 09:49 51°9.119 2°32.77 2.7 340 7.2 103110 82
2003-03-19 09:50 51°9.117 2°32.765 3 331 7.3 103110 82
2003-03-19 09:51 51°9.113 2°32.755 3.3 323 7.2 103110 81
2003-03-19 09:52 51°9.108 2°32.746 3.4 321 6.9 103110 81
2003-03-19 09:53 51°9.108 2°32.734 3.7 328 6.7 103110 82
2003-03-19 09:54 51°9.106 2°32.732 3.5 336 6.6 103110 83
2003-03-19 09:55 51°9.105 2°32.731 3.6 349 6.7 103110 84
2003-03-19 09:56 51°9.103 2°32.734 3.7 355 6.8 103110 84
2003-03-19 09:57 51°9.101 2°32.74 3.5 352 6.9 103110 83
2003-03-19 09:58 51°9.103 2°32.758 3.8 11 6.9 103110 83
2003-03-19 09:59 51°9.101 2°32.792 4 20 6.9 103110 83
2003-03-19 10:00 51°9.093 2°32.831 4.1 29 7 103100 83
2003-03-19 10:01 51°9.075 2°32.874 3.8 40 7.1 103100 82
2003-03-19 10:02 51°9.05 2°32.909 3.1 51 7.1 103100 82
2003-03-19 10:03 51°9.022 2°32.936 3.5 56 7.2 103100 82
2003-03-19 10:04 51°8.992 2°32.952 3.3 66 7.2 103100 81
2003-03-19 10:05 51°8.959 2°32.964 2.7 63 7.3 103100 82
2003-03-19 10:06 51°8.929 2°32.97 2.7 72 7.4 103090 81
2003-03-19 10:07 51°8.898 2°32.966 2.3 98 7.5 103100 81
2003-03-19 10:08 51°8.864 2°32.944 2.1 126 7.3 103100 80
2003-03-19 10:09 51°8.832 2°32.908 1.6 150 7.2 103090 80
2003-03-19 10:10 51°8.8 2°32.865 1.8 151 7.2 103090 80
2003-03-19 10:11 51°8.765 2°32.821 1.8 141 7.1 103090 80
2003-03-19 10:12 51°8.73 2°32.78 1.6 128 7 103090 80
2003-03-19 10:13 51°8.692 2°32.746 1.9 116 7 103090 81
2003-03-19 10:14 51°8.652 2°32.714 1.8 117 7.1 103090 81
2003-03-19 10:15 51°8.617 2°32.672 1.7 140 7.1 103090 81
2003-03-19 10:16 51°8.586 2°32.625 1.1 150 7.1 103090 81
2003-03-19 10:17 51°8.564 2°32.58 1.4 175 7.1 103090 81
2003-03-19 10:18 51°8.541 2°32.538 1.7 192 7.2 103080 81
2003-03-19 10:19 51°8.532 2°32.491 2 208 7.1 103090 80
2003-03-19 10:20 51°8.521 2°32.448 2.3 222 7.1 103080 81
2003-03-19 10:21 51°8.516 2°32.411 2.5 232 7 103080 81
2003-03-19 10:22 51°8.514 2°32.373 2.5 244 7 103080 81
2003-03-19 10:23 51°8.515 2°32.338 2.6 256 7 103090 82
2003-03-19 10:24 51°8.513 2°32.313 2.6 261 7 103080 82
2003-03-19 10:25 51°8.515 2°32.29 2.5 268 6.9 103080 81
2003-03-19 10:26 51°8.516 2°32.268 2.9 277 6.9 103080 81
2003-03-19 10:27 51°8.517 2°32.249 2.4 286 6.8 103080 81
2003-03-19 10:28 51°8.52 2°32.232 2.7 294 6.7 103080 81
2003-03-19 10:29 51°8.517 2°32.215 2.7 304 6.6 103080 82
2003-03-19 10:30 51°8.519 2°32.202 3 310 6.5 103080 82
2003-03-19 10:31 51°8.521 2°32.191 2.6 311 6.5 103080 83
2003-03-19 10:32 51°8.522 2°32.178 2.7 312 6.5 103080 83
2003-03-19 10:33 51°8.524 2°32.173 3 333 6.4 103080 83
2003-03-19 10:34 51°8.53 2°32.173 3 348 6.5 103080 84
2003-03-19 10:35 51°8.537 2°32.179 3.2 344 6.7 103080 84
2003-03-19 10:36 51°8.565 2°32.174 3.5 302 6.8 103080 83
2003-03-19 10:37 51°8.582 2°32.082 1.3 233 6.7 103080 83
2003-03-19 10:38 51°8.522 2°32.034 2.5 46 6.7 103080 84
2003-03-19 10:39 51°8.484 2°32.111 4.6 15 6.9 103080 84
2003-03-19 10:40 51°8.5 2°32.225 4.7 14 7 103070 84
2003-03-19 10:41 51°8.511 2°32.316 2.6 20 7.1 103070 83
2003-03-19 10:42 51°8.512 2°32.341 2.3 35 7.2 103070 83
2003-03-19 10:43 51°8.511 2°32.353 2.8 18 7.3 103070 83
2003-03-19 10:44 51°8.513 2°32.375 2.8 6 7.4 103070 82
2003-03-19 10:45 51°8.523 2°32.394 3.1 340 7.4 103070 81
2003-03-19 10:46 51°8.537 2°32.404 3 319 7.3 103070 81
2003-03-19 10:47 51°8.553 2°32.403 2.6 289 7.1 103070 81
2003-03-19 10:48 51°8.564 2°32.391 2.9 264 6.9 103070 82
2003-03-19 10:49 51°8.572 2°32.374 2.7 245 6.9 103070 83
2003-03-19 10:50 51°8.575 2°32.356 2.6 231 6.9 103070 83
2003-03-19 10:51 51°8.576 2°32.336 2.2 207 7 103070 83
2003-03-19 10:52 51°8.569 2°32.322 2 183 6.9 103070 83
2003-03-19 10:53 51°8.562 2°32.31 2 154 6.9 103070 83
2003-03-19 10:54 51°8.549 2°32.305 2 148 6.9 103070 84
2003-03-19 10:55 51°8.537 2°32.296 1.1 167 6.9 103070 83
2003-03-19 10:56 51°8.53 2°32.291 1.7 155 7 103070 84
2003-03-19 10:57 51°8.517 2°32.29 2 138 7 103070 84
2003-03-19 10:58 51°8.502 2°32.289 2.3 144 7 103070 83
2003-03-19 10:59 51°8.489 2°32.286 2.7 137 6.9 103070 83
2003-03-19 11:00 51°8.475 2°32.289 2.8 141 6.8 103070 83
2003-03-19 11:01 51°8.462 2°32.293 2.4 143 6.8 103060 83
2003-03-19 11:02 51°8.451 2°32.295 2.3 160 6.8 103060 83
2003-03-19 11:03 51°8.444 2°32.297 1.7 184 6.8 103060 84
2003-03-19 11:04 51°8.441 2°32.296 2.8 203 6.9 103060 84
2003-03-19 11:05 51°8.443 2°32.296 3.2 217 6.8 103060 84
2003-03-19 11:06 51°8.448 2°32.296 2.8 225 6.8 103060 84
2003-03-19 11:07 51°8.455 2°32.297 3.1 224 6.8 103060 84
2003-03-19 11:08 51°8.46 2°32.301 3.4 226 6.8 103050 84
2003-03-19 11:09 51°8.468 2°32.308 3.3 222 6.8 103050 84
2003-03-19 11:10 51°8.476 2°32.314 2.7 230 6.7 103050 84
2003-03-19 11:11 51°8.484 2°32.322 3.4 222 6.7 103050 85
2003-03-19 11:12 51°8.494 2°32.331 3.2 222 6.7 103050 85
2003-03-19 11:13 51°8.505 2°32.343 3 222 6.7 103050 85
2003-03-19 11:14 51°8.513 2°32.353 3.3 221 6.7 103050 85
2003-03-19 11:15 51°8.522 2°32.367 2.9 220 6.7 103040 85
2003-03-19 11:16 51°8.525 2°32.349 1.3 216 6.6 103040 85
2003-03-19 11:17 51°8.465 2°32.263 1.8 13 6.7 103040 85
2003-03-19 11:18 51°8.37 2°32.163 0.9 31 7 103050 86
2003-03-19 11:19 51°8.274 2°32.065 0.9 23 7.3 103040 86
2003-03-19 11:20 51°8.175 2°31.963 0.8 18 7.5 103040 86
2003-03-19 11:21 51°8.079 2°31.863 0.8 18 7.8 103040 86
2003-03-19 11:22 51°7.986 2°31.766 0.8   8 103030 85
2003-03-19 11:23 51°7.89 2°31.665 1.3 7 8.2 103030 84
2003-03-19 11:24 51°7.799 2°31.566 1.4 352 8.3 103030 83
2003-03-19 11:25 51°7.701 2°31.467 1 5 8.4 103030 82
2003-03-19 11:26 51°7.606 2°31.375 1 7 8.5 103020 81
2003-03-19 11:27 51°7.504 2°31.29 1.1 8 8.5 103020 80
2003-03-19 11:28 51°7.405 2°31.208 1.4 14 8.6 103020 80
2003-03-19 11:29 51°7.301 2°31.13 1.4 21 8.8 103020 79
2003-03-19 11:30 51°7.193 2°31.058 1.5 29 8.9 103020 78
2003-03-19 11:31 51°7.08 2°30.99 1.5 23 9 103020 78
2003-03-19 11:32 51°6.96 2°30.944 2 35 9.1 103020 77
2003-03-19 11:33 51°6.831 2°30.948 3.2 317 9.1 103020 75
2003-03-19 11:34 51°6.7 2°30.977 2.5 133 8.8 103020 74
2003-03-19 11:35 51°6.572 2°30.99 2.6 41 8.6 103020 74
2003-03-19 11:36 51°6.444 2°31.015 3.3 133 8.4 103020 75
2003-03-19 11:37 51°6.353 2°31.179 5.7 28 8.3 103010 75
2003-03-19 11:38 51°6.355 2°31.428 7.9 12 8.2 103000 76
2003-03-19 11:39 51°6.398 2°31.695 7.8 14 8 103000 77
2003-03-19 11:40 51°6.445 2°31.959 8 8 7.9 103000 78
2003-03-19 11:41 51°6.504 2°32.212 8.4 8 7.8 103010 79
2003-03-19 11:42 51°6.577 2°32.452 7.2 3 7.8 103000 79
2003-03-19 11:43 51°6.642 2°32.651 6.8 3 7.6 103010 79
2003-03-19 11:44 51°6.725 2°32.8 6.1 337 7.6 103010 80
2003-03-19 11:45 51°6.805 2°32.825 4.6 292 7.4 103010 80
2003-03-19 11:46 51°6.84 2°32.789 3 229 7.1 103010 81
2003-03-19 11:47 51°6.832 2°32.76 2.6 211 7 103010 82
2003-03-19 11:48 51°6.825 2°32.74 2.4 223 7 103010 82
2003-03-19 11:49 51°6.826 2°32.737 3.3 223 6.9 103010 83
2003-03-19 11:50 51°6.835 2°32.751 3 235 6.9 103010 83
2003-03-19 11:51 51°6.847 2°32.757 3.7 232 7 103010 84
2003-03-19 11:52 51°6.86 2°32.765 3.5 225 6.9 103010 83
2003-03-19 11:53 51°6.865 2°32.766 3.2 203 6.9 103010 84
2003-03-19 11:54 51°6.86 2°32.772 2.4 171 6.8 103010 83
2003-03-19 11:55 51°6.842 2°32.791 2.6 154 6.9 103010 83
2003-03-19 11:56 51°6.818 2°32.804 1.9 188 6.8 103010 83
2003-03-19 11:57 51°6.791 2°32.772 2.2 235 7 103010 83
2003-03-19 11:58 51°6.79 2°32.663 3.7 274 6.9 103000 83
2003-03-19 11:59 51°6.803 2°32.627 3.3 222 6.9 103000 83
2003-03-19 12:00 51°6.812 2°32.635 3.6 219 6.9 103000 83
2003-03-19 12:01 51°6.82 2°32.649 3.3 200 6.9 103000 83
2003-03-19 12:02 51°6.823 2°32.667 3.2 208 6.9 103000 83
2003-03-19 12:03 51°6.826 2°32.682 3.3 205 6.8 103000 84
2003-03-19 12:04 51°6.829 2°32.698 3.3 202 6.8 103000 84
2003-03-19 12:05 51°6.829 2°32.712 3.3 211 6.8 103000 84
2003-03-19 12:06 51°6.83 2°32.719 3.4 215 6.7 103000 84
2003-03-19 12:07 51°6.829 2°32.725 3.2 197 6.7 103000 83
2003-03-19 12:08 51°6.827 2°32.73 3.1 203 6.7 103000 83
2003-03-19 12:09 51°6.824 2°32.729 2.8 203 6.7 103000 83
2003-03-19 12:10 51°6.822 2°32.726 2.5 208 6.7 103000 83
2003-03-19 12:11 51°6.818 2°32.724 3.2 208 6.8 103000 84
2003-03-19 12:12 51°6.816 2°32.721 3.2 209 6.8 103000 83
2003-03-19 12:13 51°6.816 2°32.716 3.4 212 6.8 103000 83
2003-03-19 12:14 51°6.803 2°32.688 1.3 217 6.7 103000 83
2003-03-19 12:15 51°6.715 2°32.528 3.3 330 6.8 103000 83
2003-03-19 12:16 51°6.601 2°32.291 4 328 6.9 102990 83
2003-03-19 12:17 51°6.526 2°31.999 4.7 314 6.9 102990 83
2003-03-19 12:18 51°6.48 2°31.693 5.1 314 6.8 102990 83
2003-03-19 12:19 51°6.45 2°31.374 5.3 311 6.7 102980 83
2003-03-19 12:20 51°6.428 2°31.068 5.5 313 6.7 102980 83
2003-03-19 12:21 51°6.495 2°30.825 8.6 329 6.6 102980 83
2003-03-19 12:22 51°6.691 2°30.87 9.9 344 6.7 102970 84
2003-03-19 12:23 51°6.895 2°30.951 10.7 344 6.9 102970 84
2003-03-19 12:24 51°7.115 2°31.127 11.1 353 7 102970 83
2003-03-19 12:25 51°7.303 2°31.391 11.4 356 7 102970 83
2003-03-19 12:26 51°7.502 2°31.651 11.6 357 7 102960 83
2003-03-19 12:27 51°7.677 2°31.965 11.4   7 102960 83
2003-03-19 12:28 51°7.84 2°32.281 11.3 359 7 102960 83
2003-03-19 12:29 51°8.02 2°32.593 10.9 356 7.1 102960 83
2003-03-19 12:30 51°8.126 2°32.824 6.2 38 7 102960 82
2003-03-19 12:31 51°8.075 2°32.954 2.2 119 7 102970 82
2003-03-19 12:32 51°8.06 2°32.981 3.7 198 7 102980 82
2003-03-19 12:33 51°8.062 2°32.981 3.3 216 7 102980 82
2003-03-19 12:34 51°8.061 2°32.985 3.3 195 7 102970 82
2003-03-19 12:35 51°8.061 2°32.991 3.1 200 6.9 102980 82
2003-03-19 12:36 51°8.063 2°32.998 3.6 211 6.9 102980 83
2003-03-19 12:37 51°8.066 2°32.998 3.5 214 6.8 102970 83
2003-03-19 12:38 51°8.071 2°32.997 3 199 6.8 102980 83
2003-03-19 12:39 51°8.072 2°33.006 3.3 211 6.8 102970 83
2003-03-19 12:40 51°8.077 2°33.006 3.4 205 6.8 102970 84
2003-03-19 12:41 51°8.081 2°33.01 3.4 221 6.8 102970 84
2003-03-19 12:42 51°8.091 2°33.008 3.4 237 6.8 102970 84
2003-03-19 12:43 51°8.101 2°33.01 3.4 217 6.8 102970 84
2003-03-19 12:44 51°8.102 2°33.02 3.1 178 6.8 102970 84
2003-03-19 12:45 51°8.098 2°33.044 2.5 165 6.9 102970 85
2003-03-19 12:46 51°8.09 2°33.07 2.3 165 7.1 102970 84
2003-03-19 12:47 51°8.081 2°33.093 1.8 174 7.3 102970 84
2003-03-19 12:48 51°8.068 2°33.078 3 231 7.5 102970 83
2003-03-19 12:49 51°8.064 2°33.021 2.8 242 7.4 102970 82
2003-03-19 12:50 51°8.062 2°32.983 3.4 204 7.3 102960 82
2003-03-19 12:51 51°8.061 2°32.98 3.6 207 7.2 102970 82
2003-03-19 12:52 51°8.061 2°32.983 3.8 208 7 102960 82
2003-03-19 12:53 51°8.06 2°32.987 3.5 214 7 102970 82
2003-03-19 12:54 51°8.062 2°32.986 3.5 224 6.9 102960 82
2003-03-19 12:55 51°8.062 2°32.965 3.7 226 6.9 102960 83
2003-03-19 12:56 51°8.059 2°32.929 4.1 235 6.8 102960 82
2003-03-19 12:57 51°8.068 2°32.897 4 240 6.9 102960 83
2003-03-19 12:58 51°8.086 2°32.869 3.7 253 6.9 102960 83
2003-03-19 12:59 51°8.108 2°32.853 4.7 259 7 102960 83
2003-03-19 13:00 51°8.134 2°32.852 4.7 341 6.9 102960 83
2003-03-19 13:01 51°8.161 2°32.864 4.9 277 6.9 102960 83
2003-03-19 13:02 51°8.188 2°32.884 3.9 283 6.8 102960 83
2003-03-19 13:03 51°8.216 2°32.911 4.8 303 6.8 102960 84
2003-03-19 13:04 51°8.243 2°32.947 4.7 314 6.7 102950 84
2003-03-19 13:05 51°8.268 2°32.989 4.6 334 6.6 102950 85
2003-03-19 13:06 51°8.294 2°33.035 5.2 350 6.7 102950 85
2003-03-19 13:07 51°8.325 2°33.101 5.7 19 6.8 102950 85
2003-03-19 13:08 51°8.357 2°33.202 5.8 22 6.9 102950 84
2003-03-19 13:09 51°8.398 2°33.33 7.1 18 7 102940 84
2003-03-19 13:10 51°8.485 2°33.618 11.2 11 7.1 102940 83
2003-03-19 13:11 51°8.595 2°33.992 11.3 11 7.2 102930 82
2003-03-19 13:12 51°8.709 2°34.375 11.9 10 7.2 102920 82
2003-03-19 13:13 51°8.824 2°34.751 10.9 12 7.2 102930 81
2003-03-19 13:14 51°8.921 2°35.132 11 13 7.3 102930 81
2003-03-19 13:15 51°9.017 2°35.517 11.2 11 7.3 102920 80
2003-03-19 13:16 51°9.116 2°35.911 11.5 13 7.3 102930 80
2003-03-19 13:17 51°9.212 2°36.304 10.9 12 7.3 102930 80
2003-03-19 13:18 51°9.304 2°36.692 11.1 11 7.3 102920 79
2003-03-19 13:19 51°9.396 2°37.083 11.2 12 7.3 102930 79
2003-03-19 13:20 51°9.491 2°37.47 10.9 12 7.3 102920 79
2003-03-19 13:21 51°9.581 2°37.845 4.4 12 7.3 102930 79
2003-03-19 13:22 51°9.675 2°38.237 10.5 12 7.3 102930 79
2003-03-19 13:23 51°9.77 2°38.625 11 13 7.3 102930 79
2003-03-19 13:24 51°9.861 2°39.012 11.2 15 7.3 102920 78
2003-03-19 13:25 51°9.953 2°39.39 11.5 14 7.3 102930 78
2003-03-19 13:26 51°10.047 2°39.789 10.5 16 7.3 102930 78
2003-03-19 13:27 51°10.133 2°40.171 10.9 15 7.3 102930 78
2003-03-19 13:28 51°10.221 2°40.555 10.5 15 7.2 102930 78
2003-03-19 13:29 51°10.312 2°40.942 11.4 16 7.2 102930 79
2003-03-19 13:30 51°10.399 2°41.327 11.5 17 7.2 102930 79
2003-03-19 13:31 51°10.488 2°41.711 11.4 19 7.1 102930 80
2003-03-19 13:32 51°10.576 2°42.095 11.9 22 7.1 102930 80
2003-03-19 13:33 51°10.667 2°42.471 12.3 16 7.1 102930 80
2003-03-19 13:34 51°10.766 2°42.844 12.5 18 7 102930 80
2003-03-19 13:35 51°10.868 2°43.215 11.7 16 7 102930 81
2003-03-19 13:36 51°10.969 2°43.583 12.4 18 6.9 102930 81
2003-03-19 13:37 51°11.066 2°43.947 12.4 21 6.9 102920 81
2003-03-19 13:38 51°11.16 2°44.309 12.4 18 6.9 102930 82
2003-03-19 13:39 51°11.261 2°44.675 11.9 19 6.8 102920 82
2003-03-19 13:40 51°11.363 2°45.048 12.5 14 6.8 102920 82
2003-03-19 13:41 51°11.468 2°45.406 12.8 17 6.8 102920 82
2003-03-19 13:42 51°11.578 2°45.777 12.3 17 6.8 102920 83
2003-03-19 13:43 51°11.684 2°46.137 12.7 13 6.8 102920 83
2003-03-19 13:44 51°11.793 2°46.505 11.8 9 6.8 102920 83
2003-03-19 13:45 51°11.905 2°46.879 11.7 15 6.8 102920 83
2003-03-19 13:46 51°12.013 2°47.247 12.2 16 6.8 102920 83
2003-03-19 13:47 51°12.123 2°47.616 11.3 17 6.8 102920 83
2003-03-19 13:48 51°12.241 2°47.974 12.3 13 6.8 102920 82
2003-03-19 13:49 51°12.364 2°48.343 12.6 13 6.8 102920 82
2003-03-19 13:50 51°12.485 2°48.707 11.7 15 6.8 102920 82
2003-03-19 13:51 51°12.604 2°49.067 12.2 13 6.8 102920 82
2003-03-19 13:52 51°12.727 2°49.439 11.7 9 6.9 102920 82
2003-03-19 13:53 51°12.849 2°49.793 11.3 11 6.9 102920 83
2003-03-19 13:54 51°12.979 2°50.154 11.6 11 6.9 102920 83
2003-03-19 13:55 51°13.106 2°50.513 11.9 8 6.9 102920 83
2003-03-19 13:56 51°13.234 2°50.872 11.7 11 6.9 102920 83
2003-03-19 13:57 51°13.361 2°51.224 12.6 10 6.9 102920 83
2003-03-19 13:58 51°13.493 2°51.589 12.4 9 6.9 102920 83
2003-03-19 13:59 51°13.623 2°51.949 12.9 11 6.9 102920 83
2003-03-19 14:00 51°13.747 2°52.299 13.4 11 6.9 102930 84
2003-03-19 14:01 51°13.875 2°52.653 13.1 9 6.8 102920 84
2003-03-19 14:02 51°14.008 2°52.998 13.9 7 6.7 102920 85
2003-03-19 14:03 51°14.144 2°53.343 13.1 6 6.5 102930 85
2003-03-19 14:04 51°14.279 2°53.685 12.5 4 6.1 102920 85
2003-03-19 14:05 51°14.411 2°54.024 12.1 8 5.9 102920 86
2003-03-19 14:06 51°14.467 2°54.346 9.2 29 5.6 102920 86
2003-03-19 14:07 51°14.441 2°54.579 7 47 5.4 102930 87
2003-03-19 14:08 51°14.424 2°54.762 7 51 5.2 102940 88
2003-03-19 14:09 51°14.395 2°54.937 6.7 48 5.2 102940 88
2003-03-19 14:10 51°14.328 2°55.127 4.7 27 5.1 102940 88
2003-03-19 14:11 51°14.245 2°55.285 5.1 47 5.1 102930 89
2003-03-19 14:12 51°14.149 2°55.393 2.4 64 5.1 102930 89
2003-03-19 14:13 51°14.053 2°55.463 2.7 77 5.1 102940 90
2003-03-19 14:14 51°13.963 2°55.53 2.5 92 5 102940 90
2003-03-19 14:15 51°13.869 2°55.6 2.6 72 5.1 102940 90
2003-03-19 14:16 51°13.776 2°55.677 1.3 41 5.2 102940 90